Time;durP1;ratioP1;P1;durP2;ratioP2;P2;SDS_P1;SDS_P2;PMS_P1;PMS_P2;Temp;Humidity;BMP_temperature;BMP_pressure;BME280_temperature;BME280_humidity;BME280_pressure;Samples;Min_cycle;Max_cycle;Signal;HPM_P1;HPM_P2
2021/11/22 00:00:23;;;;;;;7.68;4.07;;;22.10;51.10;;;;;;5177024;28;20044;-49
2021/11/22 00:02:57;;;;;;;6.95;4.32;;;22.10;51.20;;;;;;5175047;28;20060;-51
2021/11/22 00:05:30;;;;;;;7.43;4.13;;;22.10;51.20;;;;;;5166036;28;20055;-52
2021/11/22 00:08:03;;;;;;;5.53;3.88;;;22.10;51.20;;;;;;5174771;28;20045;-50
2021/11/22 00:10:35;;;;;;;6.40;4.10;;;22.10;51.90;;;;;;5176487;28;20049;-49
2021/11/22 00:13:07;;;;;;;6.78;4.40;;;22.10;51.20;;;;;;5171791;28;20061;-53
2021/11/22 00:15:40;;;;;;;6.18;3.97;;;22.10;51.20;;;;;;5179071;28;20524;-51
2021/11/22 00:18:14;;;;;;;6.57;4.13;;;22.10;51.20;;;;;;5181763;28;20057;-52
2021/11/22 00:20:47;;;;;;;9.65;4.05;;;22.10;51.20;;;;;;5177652;28;20480;-54
2021/11/22 00:23:20;;;;;;;6.13;4.57;;;22.10;51.10;;;;;;5183177;28;20549;-52
2021/11/22 00:25:53;;;;;;;7.70;3.83;;;22.10;51.20;;;;;;5175205;28;20064;-52
2021/11/22 00:28:25;;;;;;;5.93;4.07;;;22.10;51.20;;;;;;5179316;28;20049;-51
2021/11/22 00:31:17;;;;;;;8.30;4.65;;;22.10;51.10;;;;;;5165421;28;20052;-53
2021/11/22 00:33:58;;;;;;;7.32;4.30;;;22.10;51.10;;;;;;5162575;28;20050;-51
2021/11/22 00:36:50;;;;;;;7.55;4.68;;;22.10;51.20;;;;;;5180989;28;20045;-53
2021/11/22 00:39:22;;;;;;;6.18;4.13;;;22.10;51.10;;;;;;5180502;28;20382;-53
2021/11/22 00:41:55;;;;;;;8.02;5.00;;;22.00;51.00;;;;;;5180357;28;20472;-50
2021/11/22 00:44:27;;;;;;;7.53;4.32;;;22.10;51.10;;;;;;5176152;28;20417;-52
2021/11/22 00:47:00;;;;;;;6.82;4.28;;;22.10;51.10;;;;;;5180401;28;20497;-54
2021/11/22 00:49:34;;;;;;;6.38;4.40;;;22.10;51.00;;;;;;5185753;28;20529;-51
2021/11/22 00:52:07;;;;;;;7.80;4.68;;;22.10;51.00;;;;;;5184850;28;20838;-50
2021/11/22 00:54:39;;;;;;;8.30;4.20;;;22.00;51.00;;;;;;5183474;28;20053;-50
2021/11/22 00:57:12;;;;;;;7.85;4.03;;;22.10;51.00;;;;;;5183622;28;20300;-54
2021/11/22 00:59:44;;;;;;;7.53;4.32;;;22.10;51.00;;;;;;5173484;28;20369;-51
2021/11/22 01:02:17;;;;;;;7.38;4.65;;;22.10;51.00;;;;;;5165894;28;20492;-55
2021/11/22 01:04:49;;;;;;;6.03;4.30;;;22.10;51.00;;;;;;5171143;28;20582;-51
2021/11/22 01:07:22;;;;;;;6.53;4.65;;;22.10;51.00;;;;;;5171030;28;20534;-53
2021/11/22 01:09:54;;;;;;;7.00;4.28;;;22.10;51.00;;;;;;5174468;28;20068;-52
2021/11/22 01:12:30;;;;;;;6.88;4.45;;;22.10;50.90;;;;;;5183861;28;21045;-52
2021/11/22 01:15:07;;;;;;;7.60;4.57;;;22.10;50.90;;;;;;5178300;28;20033;-52
2021/11/22 01:17:41;;;;;;;10.00;4.32;;;22.10;50.90;;;;;;5177189;28;20552;-53
2021/11/22 01:20:16;;;;;;;5.93;4.00;;;22.10;50.90;;;;;;5180492;28;20052;-50
2021/11/22 01:22:48;;;;;;;6.72;4.15;;;22.10;50.80;;;;;;5174080;28;20053;-54
2021/11/22 01:25:21;;;;;;;7.80;4.93;;;22.00;50.70;;;;;;5179584;28;20048;-52
2021/11/22 01:27:54;;;;;;;6.43;4.53;;;22.10;50.80;;;;;;5180928;28;20599;-52
2021/11/22 01:30:27;;;;;;;6.78;4.63;;;22.10;51.50;;;;;;5167360;28;20049;-52
2021/11/22 01:32:59;;;;;;;6.80;4.45;;;22.00;50.70;;;;;;5177963;28;20338;-54
2021/11/22 01:35:32;;;;;;;6.43;4.28;;;22.00;50.80;;;;;;5184191;28;20041;-54
2021/11/22 01:38:06;;;;;;;5.82;4.00;;;22.00;50.70;;;;;;5174130;28;20056;-50
2021/11/22 01:40:39;;;;;;;6.68;4.32;;;22.00;50.70;;;;;;5180668;28;20764;-51
2021/11/22 01:43:16;;;;;;;7.00;4.70;;;22.00;50.70;;;;;;5179245;28;20060;-49
2021/11/22 01:45:51;;;;;;;5.72;4.05;;;22.00;50.60;;;;;;5183402;28;20494;-55
2021/11/22 01:48:26;;;;;;;6.65;4.35;;;22.00;50.70;;;;;;5178036;28;20040;-51
2021/11/22 01:50:59;;;;;;;6.13;4.37;;;22.00;50.60;;;;;;5178982;28;21290;-53
2021/11/22 01:53:31;;;;;;;7.75;4.22;;;22.00;50.70;;;;;;5174668;28;20498;-52
2021/11/22 01:56:22;;;;;;;6.53;4.30;;;22.00;50.60;;;;;;5176915;28;20550;-52
2021/11/22 01:58:54;;;;;;;6.50;4.55;;;22.00;50.60;;;;;;5178285;28;20106;-51
2021/11/22 02:01:27;;;;;;;5.65;3.97;;;22.00;50.60;;;;;;5180054;28;20053;-51
2021/11/22 02:03:59;;;;;;;8.53;4.70;;;22.00;50.70;;;;;;5180266;28;20049;-55
2021/11/22 02:06:32;;;;;;;4.93;4.03;;;22.00;50.60;;;;;;5177822;28;20379;-54
2021/11/22 02:09:06;;;;;;;6.70;4.05;;;22.00;50.60;;;;;;5179389;28;20045;-51
2021/11/22 02:11:38;;;;;;;6.80;4.13;;;22.00;50.60;;;;;;5188842;28;20053;-50
2021/11/22 02:14:11;;;;;;;8.25;4.57;;;22.00;50.60;;;;;;5189119;28;20049;-51
2021/11/22 02:16:43;;;;;;;6.70;4.15;;;22.00;50.70;;;;;;5181229;28;20046;-53
2021/11/22 02:19:16;;;;;;;7.32;5.22;;;22.00;50.70;;;;;;5177721;28;20755;-52
2021/11/22 02:21:48;;;;;;;5.50;3.75;;;22.00;50.60;;;;;;5182881;28;20095;-52
2021/11/22 02:24:21;;;;;;;8.95;4.65;;;22.00;50.70;;;;;;5183858;28;20049;-52
2021/11/22 02:26:56;;;;;;;7.22;4.28;;;22.00;50.70;;;;;;5182998;28;20059;-51
2021/11/22 02:29:28;;;;;;;7.45;4.45;;;22.00;50.60;;;;;;5176471;28;20734;-53
2021/11/22 02:32:01;;;;;;;6.37;4.50;;;22.00;50.60;;;;;;5175758;28;20265;-51
2021/11/22 02:34:33;;;;;;;4.93;3.67;;;22.00;50.60;;;;;;5167468;28;20291;-48
2021/11/22 02:37:06;;;;;;;7.40;4.40;;;22.00;50.60;;;;;;5172781;28;20049;-51
2021/11/22 02:39:39;;;;;;;6.50;4.47;;;22.00;50.70;;;;;;5171843;28;20049;-52
2021/11/22 02:42:29;;;;;;;5.15;3.67;;;22.00;50.60;;;;;;5172508;28;20064;-52
2021/11/22 02:45:02;;;;;;;6.28;4.03;;;22.00;50.60;;;;;;5176431;28;20391;-51
2021/11/22 02:47:35;;;;;;;;;;;22.00;50.60;;;;;;5171638;28;20055;-54
2021/11/22 02:50:11;;;;;;;4.82;3.75;;;21.90;50.40;;;;;;5183536;28;19928;-50
2021/11/22 02:52:43;;;;;;;7.95;3.97;;;21.90;50.60;;;;;;5180382;28;20508;-51
2021/11/22 02:55:18;;;;;;;6.10;4.10;;;21.90;50.40;;;;;;5175107;28;20052;-52
2021/11/22 02:57:51;;;;;;;6.07;4.00;;;21.90;50.40;;;;;;5174500;28;20040;-55
2021/11/22 03:00:28;;;;;;;8.30;4.20;;;21.90;50.40;;;;;;5160306;28;20061;-52
2021/11/22 03:03:00;;;;;;;5.97;4.38;;;21.90;50.30;;;;;;5177435;28;20127;-53
2021/11/22 03:05:33;;;;;;;7.78;4.25;;;21.90;50.40;;;;;;5174494;28;20292;-52
2021/11/22 03:08:05;;;;;;;12.27;5.50;;;21.90;50.40;;;;;;5175968;28;20819;-51
2021/11/22 03:10:38;;;;;;;6.80;3.95;;;21.90;50.40;;;;;;5190059;28;20060;-51
2021/11/22 03:13:10;;;;;;;7.82;5.40;;;21.90;50.90;;;;;;5170084;28;20048;-53
2021/11/22 03:15:43;;;;;;;4.95;3.88;;;21.90;50.40;;;;;;5169419;28;20041;-53
2021/11/22 03:18:15;;;;;;;5.50;4.20;;;21.90;50.30;;;;;;5179515;28;20056;-52
2021/11/22 03:20:48;;;;;;;7.57;4.03;;;21.90;50.40;;;;;;5172647;28;20045;-54
2021/11/22 03:23:25;;;;;;;6.65;4.32;;;21.90;50.40;;;;;;5175013;28;20048;-53
2021/11/22 03:25:57;;;;;;;5.63;3.88;;;21.90;50.40;;;;;;5179738;28;20049;-51
2021/11/22 03:28:31;;;;;;;9.90;4.60;;;21.90;50.40;;;;;;5175472;28;20049;-53
2021/11/22 03:31:04;;;;;;;5.78;4.15;;;21.90;50.40;;;;;;5177657;28;20068;-54
2021/11/22 03:33:37;;;;;;;6.97;4.32;;;21.90;50.40;;;;;;5180428;28;20052;-54
2021/11/22 03:36:09;;;;;;;6.70;4.35;;;21.90;50.30;;;;;;5174847;28;20487;-50
2021/11/22 03:38:42;;;;;;;6.57;4.05;;;21.90;50.40;;;;;;5179008;28;20052;-52
2021/11/22 03:41:16;;;;;;;5.15;3.88;;;21.90;50.30;;;;;;5177629;28;20060;-51
2021/11/22 03:43:54;;;;;;;5.25;3.65;;;21.90;50.40;;;;;;5164470;28;20049;-53
2021/11/22 03:46:27;;;;;;;4.75;3.55;;;21.90;50.40;;;;;;5182229;28;20056;-50
2021/11/22 03:49:00;;;;;;;4.80;4.15;;;21.90;50.50;;;;;;5183797;28;20739;-51
2021/11/22 03:51:33;;;;;;;8.43;3.97;;;21.80;50.40;;;;;;5179638;28;20052;-52
2021/11/22 03:54:05;;;;;;;9.40;3.83;;;21.90;50.40;;;;;;5178354;28;20061;-52
2021/11/22 03:56:39;;;;;;;10.18;4.30;;;21.90;50.50;;;;;;5181734;28;20060;-53
2021/11/22 03:59:12;;;;;;;9.43;4.78;;;21.90;50.40;;;;;;5182172;28;20053;-53
2021/11/22 04:01:45;;;;;;;8.63;4.18;;;21.90;50.40;;;;;;5176606;28;21005;-53
2021/11/22 04:04:17;;;;;;;6.13;4.30;;;21.90;50.40;;;;;;5180407;28;20151;-52
2021/11/22 04:06:50;;;;;;;6.00;4.15;;;21.90;50.50;;;;;;5174257;28;20440;-53
2021/11/22 04:09:22;;;;;;;6.95;4.10;;;21.90;50.50;;;;;;5178735;28;20045;-52
2021/11/22 04:11:55;;;;;;;9.32;4.63;;;21.90;50.50;;;;;;5173420;28;20421;-55
2021/11/22 04:14:27;;;;;;;7.45;3.90;;;21.90;50.40;;;;;;5202734;23;20045;-49
2021/11/22 04:17:00;;;;;;;6.93;3.50;;;21.80;50.50;;;;;;5187507;28;20060;-45
2021/11/22 04:19:33;;;;;;;6.43;3.97;;;21.90;50.50;;;;;;5195304;28;20049;-46
2021/11/22 04:22:06;;;;;;;6.03;3.60;;;21.90;50.50;;;;;;5189803;28;20040;-44
2021/11/22 04:24:39;;;;;;;5.40;3.70;;;21.90;50.50;;;;;;5194170;28;20052;-48
2021/11/22 04:27:12;;;;;;;5.18;3.67;;;21.90;50.60;;;;;;5184068;28;20310;-44
2021/11/22 04:29:46;;;;;;;8.43;4.05;;;21.80;50.70;;;;;;5192464;28;20529;-47
2021/11/22 04:32:18;;;;;;;;;;;21.90;50.80;;;;;;5175049;28;20352;-44
2021/11/22 04:34:50;;;;;;;7.38;3.95;;;21.80;50.80;;;;;;5188367;28;19932;-47
2021/11/22 04:37:26;;;;;;;11.43;3.45;;;21.80;50.90;;;;;;5192901;28;20067;-44
2021/11/22 04:39:59;;;;;;;5.75;3.53;;;21.80;50.90;;;;;;5188703;28;20053;-46
2021/11/22 04:42:32;;;;;;;4.25;3.28;;;21.80;51.00;;;;;;5186664;28;20341;-43
2021/11/22 04:45:06;;;;;;;5.60;3.33;;;21.80;51.00;;;;;;5185932;28;20060;-46
2021/11/22 04:47:38;;;;;;;;;;;21.80;51.00;;;;;;5179383;28;20059;-43
2021/11/22 04:50:11;;;;;;;7.13;4.18;;;21.80;51.20;;;;;;5182376;28;19932;-44
2021/11/22 04:52:45;;;;;;;4.43;3.10;;;21.80;51.20;;;;;;5187481;28;20327;-43
2021/11/22 04:55:20;;;;;;;6.20;3.45;;;21.80;51.30;;;;;;5185697;28;20057;-44
2021/11/22 04:57:53;;;;;;;5.78;3.83;;;21.80;51.30;;;;;;5193158;28;20885;-45
2021/11/22 05:00:26;;;;;;;4.95;3.45;;;21.80;51.30;;;;;;5190752;28;20052;-45
2021/11/22 05:02:58;;;;;;;5.87;3.53;;;21.90;51.40;;;;;;5177019;28;20037;-43
2021/11/22 05:05:32;;;;;;;6.40;3.55;;;21.90;51.40;;;;;;5195318;28;20048;-45
2021/11/22 05:08:08;;;;;;;5.85;3.38;;;21.80;51.50;;;;;;5194560;28;20051;-43
2021/11/22 05:10:44;;;;;;;5.75;3.20;;;21.90;51.60;;;;;;5195642;28;20907;-43
2021/11/22 05:13:19;;;;;;;6.95;3.85;;;21.90;51.60;;;;;;5203374;28;20037;-44
2021/11/22 05:15:51;;;;;;;5.53;3.75;;;21.90;51.70;;;;;;5200015;28;20045;-45
2021/11/22 05:18:24;;;;;;;6.32;3.42;;;21.90;51.60;;;;;;5199692;28;20056;-41
2021/11/22 05:20:57;;;;;;;6.83;3.57;;;21.80;51.60;;;;;;5190512;28;20540;-42
2021/11/22 05:23:29;;;;;;;6.53;3.47;;;21.90;51.80;;;;;;5195518;28;20063;-47
2021/11/22 05:26:02;;;;;;;4.45;3.10;;;21.80;51.70;;;;;;5199833;28;20083;-43
2021/11/22 05:28:34;;;;;;;11.18;3.72;;;21.90;51.80;;;;;;5193573;28;20595;-44
2021/11/22 05:31:06;;;;;;;9.18;4.25;;;21.90;51.90;;;;;;5201896;28;20045;-44
2021/11/22 05:33:39;;;;;;;7.35;3.30;;;21.80;51.80;;;;;;5180522;28;20544;-43
2021/11/22 05:36:11;;;;;;;6.82;3.88;;;21.90;51.90;;;;;;5196393;28;20050;-42
2021/11/22 05:38:44;;;;;;;5.45;3.13;;;21.90;51.90;;;;;;5190063;28;20049;-44
2021/11/22 05:41:17;;;;;;;8.27;4.13;;;21.90;52.00;;;;;;5191909;28;20045;-42
2021/11/22 05:43:50;;;;;;;9.32;3.35;;;22.00;52.10;;;;;;5188353;28;20048;-44
2021/11/22 05:46:22;;;;;;;4.47;3.42;;;22.00;52.00;;;;;;5202388;28;20052;-45
2021/11/22 05:48:55;;;;;;;6.40;2.90;;;22.00;52.00;;;;;;5199432;28;20051;-45
2021/11/22 05:51:27;;;;;;;12.95;3.88;;;22.00;52.00;;;;;;5190995;28;20041;-44
2021/11/22 05:54:02;;;;;;;8.93;3.23;;;22.00;52.20;;;;;;5190207;28;20039;-43
2021/11/22 05:56:34;;;;;;;9.65;3.90;;;22.00;52.20;;;;;;5169863;28;20048;-43
2021/11/22 05:59:07;;;;;;;25.08;4.07;;;22.10;52.30;;;;;;5188544;28;20509;-45
2021/11/22 06:01:39;;;;;;;17.63;4.35;;;22.10;52.30;;;;;;5192071;28;20424;-44
2021/11/22 06:04:12;;;;;;;13.18;4.25;;;22.10;52.30;;;;;;5209262;28;20192;-44
2021/11/22 06:06:45;;;;;;;14.80;3.85;;;22.10;52.20;;;;;;5195353;28;20044;-45
2021/11/22 06:09:18;;;;;;;10.88;3.75;;;22.10;52.20;;;;;;5195920;28;20114;-44
2021/11/22 06:11:50;;;;;;;9.43;3.30;;;22.10;52.00;;;;;;5210498;28;20033;-43
2021/11/22 06:14:22;;;;;;;15.20;4.18;;;22.10;52.00;;;;;;5208928;28;20040;-46
2021/11/22 06:16:55;;;;;;;20.67;3.85;;;22.10;51.90;;;;;;5189518;28;20076;-42
2021/11/22 06:19:27;;;;;;;10.63;4.13;;;22.20;51.90;;;;;;5205943;28;20052;-44
2021/11/22 06:22:00;;;;;;;7.78;3.53;;;22.20;51.80;;;;;;5191271;28;20500;-43
2021/11/22 06:24:33;;;;;;;6.72;3.13;;;22.20;51.80;;;;;;5208951;28;20045;-45
2021/11/22 06:27:05;;;;;;;10.00;3.97;;;22.20;51.70;;;;;;5214210;28;20382;-45
2021/11/22 06:29:39;;;;;;;;;;;22.20;51.70;;;;;;5208219;28;20083;-43
2021/11/22 06:32:11;;;;;;;9.85;3.63;;;22.20;51.70;;;;;;5211502;28;19932;-45
2021/11/22 06:34:44;;;;;;;7.07;3.17;;;22.20;51.80;;;;;;5208389;28;20041;-44
2021/11/22 06:37:16;;;;;;;8.57;4.65;;;22.20;51.70;;;;;;5199076;28;20106;-45
2021/11/22 06:39:49;;;;;;;6.20;2.95;;;22.20;51.70;;;;;;5214897;28;20060;-43
2021/11/22 06:42:22;;;;;;;4.78;3.10;;;22.20;51.70;;;;;;5225889;28;20072;-44
2021/11/22 06:44:55;;;;;;;10.63;3.63;;;22.20;51.70;;;;;;5225128;28;20045;-43
2021/11/22 06:47:28;;;;;;;9.48;3.45;;;22.20;51.60;;;;;;5224556;28;20063;-44
2021/11/22 06:50:01;;;;;;;14.13;3.50;;;22.20;51.60;;;;;;5228920;28;20063;-43
2021/11/22 06:52:33;;;;;;;9.90;3.13;;;22.20;51.60;;;;;;5227991;28;20041;-45
2021/11/22 06:55:06;;;;;;;5.47;2.95;;;22.20;51.60;;;;;;5228775;28;20057;-44
2021/11/22 06:57:39;;;;;;;7.10;3.17;;;22.30;51.60;;;;;;5229730;28;20052;-43
2021/11/22 07:00:13;;;;;;;6.88;3.30;;;22.20;51.50;;;;;;5226433;28;20049;-42
2021/11/22 07:02:50;;;;;;;9.80;3.17;;;22.20;51.50;;;;;;5226577;28;20060;-48
2021/11/22 07:05:25;;;;;;;9.30;3.20;;;22.30;51.50;;;;;;5228357;28;20515;-46
2021/11/22 07:07:58;;;;;;;7.38;3.15;;;22.30;51.50;;;;;;5226566;28;20417;-44
2021/11/22 07:10:30;;;;;;;7.65;3.05;;;22.30;51.50;;;;;;5229099;28;20055;-43
2021/11/22 07:13:03;;;;;;;8.95;3.08;;;22.30;51.50;;;;;;5226661;28;20045;-45
2021/11/22 07:15:37;;;;;;;8.37;4.00;;;22.30;51.40;;;;;;5227899;28;20448;-42
2021/11/22 07:18:09;;;;;;;6.35;3.00;;;22.30;51.40;;;;;;5226262;28;20057;-46
2021/11/22 07:20:46;;;;;;;4.90;2.65;;;22.30;51.50;;;;;;5227473;28;20052;-47
2021/11/22 07:23:22;;;;;;;3.78;2.60;;;22.30;51.40;;;;;;5229835;28;20044;-46
2021/11/22 07:25:56;;;;;;;8.57;2.90;;;22.30;51.40;;;;;;5213483;28;20045;-46
2021/11/22 07:28:29;;;;;;;6.22;2.80;;;22.30;51.40;;;;;;5230429;28;20308;-46
2021/11/22 07:31:01;;;;;;;9.05;3.15;;;22.30;51.40;;;;;;5222566;28;20517;-45
2021/11/22 07:33:34;;;;;;;3.63;2.93;;;22.30;51.40;;;;;;5223483;28;20048;-47
2021/11/22 07:36:06;;;;;;;6.75;3.15;;;22.30;51.40;;;;;;5223102;28;20748;-44
2021/11/22 07:38:39;;;;;;;7.78;3.00;;;22.30;51.40;;;;;;5222948;28;20056;-47
2021/11/22 07:41:12;;;;;;;5.15;2.70;;;22.30;51.30;;;;;;5224662;28;20049;-47
2021/11/22 07:43:44;;;;;;;4.00;2.75;;;22.30;51.40;;;;;;5226308;28;20421;-48
2021/11/22 07:46:17;;;;;;;4.22;2.83;;;22.30;51.30;;;;;;5229653;28;20055;-47
2021/11/22 07:48:50;;;;;;;4.70;2.60;;;22.30;51.40;;;;;;5228122;28;20071;-47
2021/11/22 07:51:23;;;;;;;3.97;2.60;;;22.30;51.30;;;;;;5228310;28;20060;-47
2021/11/22 07:53:55;;;;;;;7.60;2.92;;;22.30;51.40;;;;;;5228375;28;20606;-47
2021/11/22 07:56:28;;;;;;;4.28;2.40;;;22.30;51.30;;;;;;5228980;28;20049;-44
2021/11/22 07:59:00;;;;;;;4.75;2.60;;;22.30;51.30;;;;;;5225818;28;20045;-47
2021/11/22 08:01:33;;;;;;;4.05;2.55;;;22.30;51.30;;;;;;5224626;28;20458;-46
2021/11/22 08:04:12;;;;;;;3.90;2.50;;;22.30;51.30;;;;;;5220074;28;20068;-46
2021/11/22 08:06:48;;;;;;;4.75;2.63;;;22.30;51.30;;;;;;5221705;28;20381;-46
2021/11/22 08:09:46;;;;;;;4.65;2.35;;;22.40;51.40;;;;;;5223182;28;20490;-47
2021/11/22 08:12:28;;;;;;;4.90;3.05;;;22.40;51.40;;;;;;5223303;28;20060;-45
2021/11/22 08:15:04;;;;;;;4.93;2.60;;;22.40;51.40;;;;;;5227207;28;20532;-48
2021/11/22 08:17:39;;;;;;;3.75;2.30;;;22.40;51.50;;;;;;5223857;28;20787;-48
2021/11/22 08:20:13;;;;;;;6.45;2.40;;;22.40;51.40;;;;;;5224876;28;20052;-44
2021/11/22 08:22:47;;;;;;;3.95;2.30;;;22.40;51.40;;;;;;5210694;28;20400;-47
2021/11/22 08:25:23;;;;;;;4.40;2.58;;;22.40;51.30;;;;;;5232403;28;20417;-47
2021/11/22 08:27:57;;;;;;;5.63;2.90;;;22.40;51.40;;;;;;5211310;28;20056;-44
2021/11/22 08:30:30;;;;;;;3.50;2.53;;;22.40;51.40;;;;;;5223540;28;20041;-46
2021/11/22 08:33:03;;;;;;;7.10;2.97;;;22.40;51.40;;;;;;5229917;28;20051;-46
2021/11/22 08:35:35;;;;;;;3.88;2.63;;;22.40;51.40;;;;;;5228013;28;20412;-48
2021/11/22 08:38:09;;;;;;;5.10;2.63;;;22.40;51.30;;;;;;5227484;28;20049;-48
2021/11/22 08:40:42;;;;;;;4.10;2.88;;;22.40;51.30;;;;;;5227435;28;20060;-46
2021/11/22 08:43:17;;;;;;;2.85;2.30;;;22.40;51.40;;;;;;5226501;28;20060;-46
2021/11/22 08:45:51;;;;;;;3.60;2.35;;;22.40;51.30;;;;;;5228646;28;20055;-46
2021/11/22 08:48:25;;;;;;;4.00;2.53;;;22.40;51.40;;;;;;5227001;28;20049;-46
2021/11/22 08:50:59;;;;;;;4.18;2.78;;;22.40;51.30;;;;;;5228412;28;20053;-46
2021/11/22 08:53:32;;;;;;;;;;;22.40;51.40;;;;;;5231537;28;20053;-45
2021/11/22 08:56:04;;;;;;;4.30;2.33;;;22.30;51.30;;;;;;5229423;28;19936;-45
2021/11/22 08:58:37;;;;;;;3.28;2.38;;;22.40;51.40;;;;;;5232276;28;20055;-46
2021/11/22 09:01:09;;;;;;;3.92;2.42;;;22.40;51.40;;;;;;5216407;28;20355;-47
2021/11/22 09:03:42;;;;;;;3.13;2.13;;;22.40;51.50;;;;;;5228527;28;20052;-44
2021/11/22 09:06:15;;;;;;;2.78;2.22;;;22.40;51.40;;;;;;5230522;28;20053;-48
2021/11/22 09:08:48;;;;;;;8.33;2.67;;;22.40;51.40;;;;;;5229747;28;20139;-46
2021/11/22 09:11:20;;;;;;;3.42;2.30;;;22.40;51.40;;;;;;5227311;28;20052;-46
2021/11/22 09:13:53;;;;;;;3.22;2.47;;;22.40;51.40;;;;;;5227383;28;20044;-46
2021/11/22 09:16:28;;;;;;;4.47;2.17;;;22.40;51.40;;;;;;5227040;28;20052;-46
2021/11/22 09:19:03;;;;;;;2.78;2.15;;;22.40;51.40;;;;;;5228504;28;20049;-44
2021/11/22 09:21:36;;;;;;;3.20;2.40;;;22.40;51.30;;;;;;5226163;28;20045;-46
2021/11/22 09:24:09;;;;;;;3.40;2.67;;;22.40;51.40;;;;;;5230212;28;20049;-45
2021/11/22 09:26:41;;;;;;;3.63;2.30;;;22.40;51.40;;;;;;5227982;28;20053;-46
2021/11/22 09:29:14;;;;;;;3.58;2.20;;;22.40;51.30;;;;;;5232791;28;20056;-47
2021/11/22 09:31:46;;;;;;;2.63;2.30;;;22.40;51.40;;;;;;5228510;28;20611;-47
2021/11/22 09:34:19;;;;;;;5.03;2.10;;;22.40;51.40;;;;;;5228544;28;20049;-47
2021/11/22 09:36:52;;;;;;;3.30;2.10;;;22.40;51.40;;;;;;5227150;28;20045;-46
2021/11/22 09:39:24;;;;;;;4.25;2.10;;;22.40;51.40;;;;;;5225676;28;20326;-44
2021/11/22 09:41:56;;;;;;;3.70;2.38;;;22.40;52.00;;;;;;5226967;28;20054;-46
2021/11/22 09:44:29;;;;;;;2.33;1.90;;;22.40;51.30;;;;;;5228018;28;20053;-44
2021/11/22 09:47:02;;;;;;;3.22;2.30;;;22.40;51.40;;;;;;5230970;28;20049;-45
2021/11/22 09:49:36;;;;;;;4.20;2.10;;;22.40;51.30;;;;;;5227327;28;20037;-45
2021/11/22 09:52:08;;;;;;;2.97;2.50;;;22.40;51.40;;;;;;5227159;28;20044;-45
2021/11/22 09:54:42;;;;;;;3.17;2.20;;;22.40;51.40;;;;;;5227369;28;20048;-45
2021/11/22 09:57:15;;;;;;;3.22;2.25;;;22.40;51.30;;;;;;5229320;28;20335;-45
2021/11/22 09:59:47;;;;;;;2.78;1.83;;;22.40;51.30;;;;;;5221941;28;20052;-46
2021/11/22 10:02:43;;;;;;;3.83;2.55;;;22.40;51.30;;;;;;5227403;28;20344;-47
2021/11/22 10:05:33;;;;;;;2.58;1.85;;;22.40;51.30;;;;;;5230036;28;20075;-46
2021/11/22 10:08:10;;;;;;;2.58;2.15;;;22.40;51.30;;;;;;5228165;28;20040;-45
2021/11/22 10:10:45;;;;;;;2.90;2.10;;;22.40;51.30;;;;;;5229296;28;20056;-45
2021/11/22 10:13:22;;;;;;;3.67;2.33;;;22.40;51.30;;;;;;5229688;28;20056;-46
2021/11/22 10:16:21;;;;;;;4.75;2.08;;;22.40;51.30;;;;;;5239919;23;20056;-67
2021/11/22 10:18:59;;;;;;;3.65;1.90;;;22.40;51.40;;;;;;5241345;28;20055;-67
2021/11/22 10:21:37;;;;;;;2.40;1.90;;;22.40;51.40;;;;;;5240186;28;20051;-67
2021/11/22 10:24:11;;;;;;;2.88;1.90;;;22.40;51.30;;;;;;5241888;28;20056;-67
2021/11/22 10:26:49;;;;;;;2.83;2.10;;;22.50;51.40;;;;;;5240559;28;20532;-67
2021/11/22 10:29:29;;;;;;;2.58;2.08;;;22.40;51.30;;;;;;5241331;28;20044;-67
2021/11/22 10:32:04;;;;;;;2.33;1.95;;;22.40;51.40;;;;;;5242236;28;20060;-67
2021/11/22 10:34:38;;;;;;;2.75;1.80;;;22.40;51.30;;;;;;5241435;28;20044;-67
2021/11/22 10:37:11;;;;;;;3.45;2.40;;;22.40;51.40;;;;;;5240821;28;20413;-66
2021/11/22 10:39:43;;;;;;;2.70;2.10;;;22.50;51.40;;;;;;5240040;28;20477;-67
2021/11/22 10:42:27;;;;;;;3.60;1.73;;;22.40;51.30;;;;;;5240954;28;20295;-67
2021/11/22 10:45:00;;;;;;;3.42;1.95;;;22.50;51.40;;;;;;5239923;28;20052;-67
2021/11/22 10:47:32;;;;;;;2.90;1.90;;;22.40;51.40;;;;;;5240421;28;20688;-67
2021/11/22 10:50:07;;;;;;;2.27;1.90;;;22.40;51.40;;;;;;5239225;28;20084;-67
2021/11/22 10:52:44;;;;;;;1.88;1.70;;;22.40;51.40;;;;;;5239337;28;20048;-67
2021/11/22 10:55:16;;;;;;;3.38;1.90;;;22.50;51.40;;;;;;5240271;28;20048;-67
2021/11/22 10:57:49;;;;;;;3.13;2.10;;;22.50;51.40;;;;;;5241438;28;20386;-67
2021/11/22 11:00:24;;;;;;;4.35;2.25;;;22.50;51.40;;;;;;5238910;28;20066;-67
2021/11/22 11:02:57;;;;;;;2.35;1.85;;;22.50;51.50;;;;;;5240188;28;20048;-67
2021/11/22 11:05:39;;;;;;;2.30;2.00;;;22.50;51.40;;;;;;5237886;28;20052;-67
2021/11/22 11:08:12;;;;;;;2.92;1.90;;;22.50;51.40;;;;;;5237002;28;20508;-67
2021/11/22 11:10:49;;;;;;;1.88;1.70;;;22.50;51.40;;;;;;5239249;28;20052;-67
2021/11/22 11:13:49;;;;;;;1.80;1.40;;;22.50;51.40;;;;;;5240298;28;20063;-67
2021/11/22 11:16:22;;;;;;;6.75;1.83;;;22.40;51.40;;;;;;5240085;28;20433;-67
2021/11/22 11:19:00;;;;;;;2.53;1.80;;;22.50;51.50;;;;;;5240485;28;20049;-67
2021/11/22 11:21:36;;;;;;;2.30;2.08;;;22.50;51.40;;;;;;5238545;28;20063;-67
2021/11/22 11:24:09;;;;;;;1.80;1.70;;;22.50;51.40;;;;;;5238351;28;20418;-66
2021/11/22 11:26:44;;;;;;;3.30;2.10;;;22.50;51.40;;;;;;5238706;28;20067;-67
2021/11/22 11:29:17;;;;;;;2.00;1.77;;;22.50;51.40;;;;;;5240901;28;20064;-67
2021/11/22 11:31:49;;;;;;;1.77;1.55;;;22.40;51.40;;;;;;5239917;28;20473;-67
2021/11/22 11:34:29;;;;;;;2.42;1.70;;;22.50;51.50;;;;;;5238758;28;20052;-67
2021/11/22 11:37:10;;;;;;;2.08;1.60;;;22.50;51.40;;;;;;5239963;28;20044;-67
2021/11/22 11:40:02;;;;;;;1.90;1.70;;;22.50;51.40;;;;;;5238441;28;20051;-67
2021/11/22 11:43:12;;;;;;;2.15;1.85;;;22.50;51.40;;;;;;5238115;28;20052;-67
2021/11/22 11:45:54;;;;;;;2.00;1.60;;;22.50;51.40;;;;;;5239708;28;20071;-67
2021/11/22 11:48:51;;;;;;;2.60;1.90;;;22.50;51.40;;;;;;5238315;28;20457;-67
2021/11/22 11:51:55;;;;;;;2.28;1.90;;;22.50;51.40;;;;;;5240529;28;20063;-67
2021/11/22 11:54:28;;;;;;;2.80;1.80;;;22.50;51.40;;;;;;5237260;28;20048;-67
2021/11/22 11:57:05;;;;;;;1.90;1.70;;;22.50;51.50;;;;;;5241094;28;20045;-67
2021/11/22 11:59:41;;;;;;;4.68;2.53;;;22.50;51.50;;;;;;5238838;28;20079;-67
2021/11/22 12:02:33;;;;;;;2.58;1.80;;;22.50;51.50;;;;;;5240485;28;20397;-67
2021/11/22 12:05:09;;;;;;;2.42;1.83;;;22.50;51.50;;;;;;5240587;28;20517;-67
2021/11/22 12:07:46;;;;;;;2.35;2.03;;;22.50;51.50;;;;;;5245164;28;20414;-67
2021/11/22 12:10:25;;;;;;;1.73;1.63;;;22.50;51.50;;;;;;5247341;28;20048;-67
2021/11/22 12:12:58;;;;;;;2.00;1.55;;;22.50;51.50;;;;;;5245477;28;20052;-67
2021/11/22 12:15:42;;;;;;;2.25;1.90;;;22.50;51.50;;;;;;5246437;28;20115;-67
2021/11/22 12:18:35;;;;;;;1.83;1.60;;;22.50;51.50;;;;;;5241279;28;20041;-67
2021/11/22 12:21:23;;;;;;;2.40;1.90;;;22.40;51.40;;;;;;5245342;28;20168;-67
2021/11/22 12:23:55;;;;;;;2.40;2.00;;;22.50;51.50;;;;;;5228427;28;20055;-67
2021/11/22 12:26:35;;;;;;;2.00;1.67;;;22.50;51.60;;;;;;5236063;28;20051;-67
2021/11/22 12:29:08;;;;;;;3.10;1.92;;;22.50;51.50;;;;;;5239332;28;20060;-67
2021/11/22 12:31:47;;;;;;;2.97;1.88;;;22.50;51.60;;;;;;5226511;28;20036;-67
2021/11/22 12:34:39;;;;;;;2.33;1.88;;;22.50;51.50;;;;;;5242432;28;20051;-67
2021/11/22 12:37:26;;;;;;;2.45;1.80;;;22.40;51.50;;;;;;5240925;28;20044;-67
2021/11/22 12:40:17;;;;;;;1.67;1.40;;;22.50;51.50;;;;;;5236737;28;20059;-67
2021/11/22 12:42:55;;;;;;;2.15;1.63;;;22.50;51.60;;;;;;5213990;28;20378;-67
2021/11/22 12:45:27;;;;;;;3.75;1.88;;;22.50;52.20;;;;;;5242871;28;20409;-67
2021/11/22 12:48:29;;;;;;;2.65;1.77;;;22.50;51.60;;;;;;5237571;28;20049;-67
2021/11/22 12:51:06;;;;;;;2.42;1.63;;;22.50;51.60;;;;;;5239533;28;20060;-67
2021/11/22 12:53:59;;;;;;;2.70;1.83;;;22.50;51.60;;;;;;5240184;28;20060;-67
2021/11/22 12:56:35;;;;;;;2.00;1.80;;;22.50;51.60;;;;;;5241812;28;20040;-67
2021/11/22 12:59:15;;;;;;;3.35;1.70;;;22.50;51.60;;;;;;5238271;28;20041;-67
2021/11/22 13:01:51;;;;;;;3.35;1.90;;;22.50;51.60;;;;;;5237214;28;20668;-67
2021/11/22 13:04:43;;;;;;;3.80;2.00;;;22.50;51.60;;;;;;5235510;28;20497;-67
2021/11/22 13:07:34;;;;;;;2.45;1.90;;;22.50;51.60;;;;;;5228768;28;20093;-66
2021/11/22 13:10:10;;;;;;;2.97;1.40;;;22.50;51.60;;;;;;5235657;28;20041;-66
2021/11/22 13:12:45;;;;;;;2.92;1.85;;;22.50;51.60;;;;;;5234700;28;20064;-66
2021/11/22 13:17:53;;;;;;;2.10;1.83;;;22.50;51.60;;;;;;5235594;28;20044;-66
2021/11/22 13:20:35;;;;;;;2.53;1.98;;;22.50;51.60;;;;;;5232184;28;20129;-66
2021/11/22 13:23:29;;;;;;;2.17;1.63;;;22.50;51.70;;;;;;5232725;28;20045;-66
2021/11/22 13:26:08;;;;;;;2.53;1.88;;;22.50;51.60;;;;;;5234087;28;20056;-66
2021/11/22 13:29:04;;;;;;;4.22;1.98;;;22.50;51.70;;;;;;5219166;28;20056;-66
2021/11/22 13:31:43;;;;;;;2.70;2.05;;;22.50;51.70;;;;;;5234365;28;20212;-66